Time;durP1;ratioP1;P1;durP2;ratioP2;P2;SDS_P1;SDS_P2;PMS_P1;PMS_P2;Temp;Humidity;BMP_temperature;BMP_pressure;BME280_temperature;BME280_humidity;BME280_pressure;Samples;Min_cycle;Max_cycle;Signal;HPM_P1;HPM_P2
2021/08/07 00:02:25;;;;;;;4.97;1.45;;;;;;;20.24;44.58;94533.88;5035527;28;20032;-79
2021/08/07 00:04:50;;;;;;;4.72;1.60;;;;;;;20.24;44.48;94534.66;5000167;28;20037;-79
2021/08/07 00:07:15;;;;;;;2.22;1.70;;;;;;;20.24;44.54;94525.94;5040161;22;20040;-79
2021/08/07 00:09:41;;;;;;;1.30;1.27;;;;;;;20.24;43.94;94529.38;5035904;28;20034;-79
2021/08/07 00:12:06;;;;;;;1.48;1.38;;;;;;;20.23;44.24;94527.81;5035897;28;20018;-79
2021/08/07 00:14:32;;;;;;;1.00;1.00;;;;;;;20.24;44.15;94533.88;5017131;28;20453;-79
2021/08/07 00:16:57;;;;;;;1.55;1.10;;;;;;;20.26;44.42;94529.84;5035284;28;20017;-79
2021/08/07 00:19:23;;;;;;;2.75;0.93;;;;;;;20.30;44.27;94538.72;5017504;28;20033;-79
2021/08/07 00:21:54;;;;;;;1.08;1.00;;;;;;;20.28;44.20;94534.81;5015314;28;20047;-79
2021/08/07 00:24:20;;;;;;;1.70;1.60;;;;;;;20.30;44.18;94537.94;5034552;28;20033;-79
2021/08/07 00:26:45;;;;;;;4.18;1.65;;;;;;;20.25;43.96;94536.22;5032312;28;20034;-79
2021/08/07 00:29:11;;;;;;;6.53;1.80;;;;;;;20.24;44.30;94534.66;5034631;28;20041;-79
2021/08/07 00:31:36;;;;;;;1.75;1.58;;;;;;;20.25;44.21;94541.50;5034900;28;20042;-79
2021/08/07 00:34:02;;;;;;;1.52;1.40;;;;;;;20.19;44.35;94542.69;5016791;28;20022;-79
2021/08/07 00:36:33;;;;;;;1.13;1.10;;;;;;;20.10;44.81;94544.47;4999477;28;20056;-79
2021/08/07 00:38:59;;;;;;;1.33;1.23;;;;;;;20.08;44.91;94551.91;5015687;28;20029;-79
2021/08/07 00:41:24;;;;;;;2.53;1.42;;;;;;;20.02;45.11;94553.09;5033270;28;20382;-79
2021/08/07 00:43:53;;;;;;;1.40;1.30;;;;;;;20.01;45.09;94549.69;5034929;28;20105;-79
2021/08/07 00:46:21;;;;;;;1.75;1.10;;;;;;;19.98;44.91;94546.84;5033493;28;20413;-78
2021/08/07 00:48:47;;;;;;;3.80;1.58;;;;;;;19.97;45.14;94550.56;5034553;28;20083;-79
2021/08/07 00:51:12;;;;;;;2.28;1.20;;;;;;;19.96;45.12;94543.72;5033770;28;20025;-79
2021/08/07 00:53:37;;;;;;;2.10;1.20;;;;;;;19.93;45.30;94544.31;4983587;28;20021;-79
2021/08/07 00:56:03;;;;;;;3.28;1.40;;;;;;;19.91;45.00;94541.19;5033658;28;20048;-79
2021/08/07 00:58:28;;;;;;;5.63;3.00;;;;;;;19.81;45.37;94544.81;5033534;28;20030;-79
2021/08/07 01:00:54;;;;;;;9.02;4.10;;;;;;;19.79;45.48;94542.47;4999752;28;20091;-78
2021/08/07 01:03:33;;;;;;;5.65;5.05;;;;;;;19.74;45.74;94545.22;4999829;28;20386;-79
2021/08/07 01:06:07;;;;;;;7.05;5.60;;;;;;;19.71;45.69;94539.75;5016933;28;20048;-79
2021/08/07 01:08:38;;;;;;;6.45;4.40;;;;;;;19.71;45.90;94540.53;5017154;28;20041;-79
2021/08/07 01:11:12;;;;;;;5.85;3.60;;;;;;;19.73;45.68;94541.03;4999660;28;20112;-79
2021/08/07 01:13:41;;;;;;;3.22;2.90;;;;;;;19.74;45.89;94536.53;5033768;28;20473;-79
2021/08/07 01:16:09;;;;;;;5.32;2.03;;;;;;;19.74;45.73;94542.59;5016107;28;20037;-79
2021/08/07 01:18:35;;;;;;;2.20;2.00;;;;;;;19.72;46.10;94533.41;5034735;28;20040;-79
2021/08/07 01:21:00;;;;;;;2.05;1.50;;;;;;;19.68;45.99;94541.09;5000711;28;20096;-79
2021/08/07 01:23:41;;;;;;;1.33;1.23;;;;;;;19.70;46.17;94536.34;5000072;28;20026;-79
2021/08/07 01:26:18;;;;;;;6.68;3.20;;;;;;;19.71;46.12;94543.19;5016629;28;20037;-79
2021/08/07 01:28:44;;;;;;;2.40;2.20;;;;;;;19.71;46.20;94543.19;5034627;28;20055;-79
2021/08/07 01:31:14;;;;;;;5.47;2.20;;;;;;;19.74;46.05;94550.50;5000903;28;20516;-79
2021/08/07 01:33:41;;;;;;;4.38;1.85;;;;;;;19.78;46.25;94551.47;4999960;28;20048;-79
2021/08/07 01:36:06;;;;;;;2.10;1.90;;;;;;;19.85;46.37;94550.28;5001120;28;20441;-79
2021/08/07 01:38:32;;;;;;;1.80;1.70;;;;;;;19.87;46.25;94545.50;5015173;28;20025;-79
2021/08/07 01:40:57;;;;;;;3.03;1.95;;;;;;;19.90;46.08;94540.41;5015690;28;20028;-79
2021/08/07 01:43:22;;;;;;;3.60;1.58;;;;;;;19.92;46.11;94548.03;5033178;28;20038;-79
2021/08/07 01:45:48;;;;;;;1.83;1.48;;;;;;;19.90;46.47;94543.06;5032878;28;20033;-79
2021/08/07 01:48:27;;;;;;;2.08;1.58;;;;;;;19.92;46.04;94548.03;5035827;28;20116;-79
2021/08/07 01:51:11;;;;;;;3.67;1.83;;;;;;;19.90;45.89;94545.69;5036848;28;20025;-79
2021/08/07 01:53:37;;;;;;;1.55;1.33;;;;;;;19.92;46.23;94545.38;5019347;28;20045;-79
2021/08/07 01:56:37;;;;;;;1.75;1.65;;;;;;;19.92;46.32;94542.75;5019041;28;20032;-79
2021/08/07 01:59:08;;;;;;;2.53;1.80;;;;;;;19.90;46.08;94540.41;4967204;28;20042;-79
2021/08/07 02:01:34;;;;;;;1.83;1.73;;;;;;;19.90;46.32;94542.28;5032023;23;20040;-78
2021/08/07 02:04:00;;;;;;;10.30;2.42;;;;;;;19.90;46.29;94547.56;5055283;28;20433;-78
2021/08/07 02:06:26;;;;;;;4.60;2.78;;;;;;;19.91;46.28;94544.63;5038313;28;20053;-78
2021/08/07 02:08:51;;;;;;;7.10;2.67;;;;;;;19.89;46.26;94548.63;5038641;28;20037;-78
2021/08/07 02:11:17;;;;;;;4.72;3.13;;;;;;;19.90;46.44;94552.81;5055379;28;20104;-78
2021/08/07 02:13:42;;;;;;;2.42;2.15;;;;;;;19.90;46.50;94560.75;5038509;28;20033;-78
2021/08/07 02:16:08;;;;;;;2.03;1.75;;;;;;;19.89;45.97;94559.19;5056335;28;20039;-78
2021/08/07 02:18:33;;;;;;;1.65;1.55;;;;;;;19.87;45.75;94556.06;5038191;28;20044;-78
2021/08/07 02:21:02;;;;;;;1.70;1.60;;;;;;;19.87;45.75;94556.06;5054570;28;20468;-79
2021/08/07 02:23:27;;;;;;;3.25;1.45;;;;;;;19.83;46.17;94560.34;5038772;28;20040;-78
2021/08/07 02:25:58;;;;;;;3.53;1.52;;;;;;;19.82;46.13;94558.78;5055977;28;20025;-78
2021/08/07 02:28:23;;;;;;;5.75;1.58;;;;;;;19.82;46.21;94569.34;5054861;28;20033;-79
2021/08/07 02:30:49;;;;;;;1.58;1.48;;;;;;;19.85;46.20;94574.03;5038174;28;20037;-78
2021/08/07 02:33:15;;;;;;;6.03;1.73;;;;;;;19.84;46.39;94567.97;5038874;28;20055;-78
2021/08/07 02:35:40;;;;;;;9.27;2.03;;;;;;;19.85;46.43;94569.56;5021366;28;20064;-78
2021/08/07 02:38:06;;;;;;;2.90;1.63;;;;;;;19.86;46.20;94565.06;5021048;28;20047;-78
2021/08/07 02:40:31;;;;;;;5.03;2.00;;;;;;;19.87;46.08;94569.25;5038408;28;20492;-78
2021/08/07 02:42:57;;;;;;;8.45;2.30;;;;;;;19.87;45.81;94566.63;5021830;28;20033;-78
2021/08/07 02:45:22;;;;;;;8.40;3.22;;;;;;;19.85;45.85;94568.75;5055198;28;20079;-78
2021/08/07 02:47:48;;;;;;;13.77;5.32;;;;;;;19.84;46.02;94567.19;5056220;28;20025;-78
2021/08/07 02:50:16;;;;;;;20.20;8.90;;;;;;;19.82;45.88;94577.25;5056684;28;20036;-78
2021/08/07 02:52:42;;;;;;;11.95;6.60;;;;;;;19.73;46.00;94569.28;5055616;28;20055;-78
2021/08/07 02:55:10;;;;;;;11.25;7.25;;;;;;;19.71;46.15;94574.06;5037941;28;20033;-78
2021/08/07 02:57:36;;;;;;;9.52;5.30;;;;;;;19.68;46.19;94572.75;5055519;28;20118;-78
2021/08/07 03:00:01;;;;;;;6.43;4.22;;;;;;;19.67;46.03;94565.94;5053871;28;20496;-78
2021/08/07 03:02:27;;;;;;;5.70;3.53;;;;;;;19.69;46.29;94571.72;5055573;22;20030;-78
2021/08/07 03:04:52;;;;;;;12.05;4.10;;;;;;;19.69;46.23;94577.00;5029218;28;20060;-77
2021/08/07 03:07:18;;;;;;;11.82;6.53;;;;;;;19.68;46.62;94572.00;5020242;28;20033;-78
2021/08/07 03:09:43;;;;;;;10.63;6.80;;;;;;;19.71;47.12;94576.69;5016147;28;20044;-78
2021/08/07 03:12:09;;;;;;;11.27;6.25;;;;;;;19.67;47.05;94578.34;5015876;28;20026;-79
2021/08/07 03:14:34;;;;;;;11.90;7.05;;;;;;;19.67;47.06;94579.13;5014466;28;20038;-78
2021/08/07 03:17:00;;;;;;;15.13;6.25;;;;;;;19.71;47.03;94582.75;4997811;28;20040;-78
2021/08/07 03:19:25;;;;;;;13.80;6.82;;;;;;;19.68;47.30;94572.75;5014669;28;20398;-78
2021/08/07 03:21:53;;;;;;;21.95;9.70;;;;;;;19.67;46.97;94573.84;5014118;28;20041;-79
2021/08/07 03:24:22;;;;;;;7.45;5.13;;;;;;;19.68;47.03;94585.97;4998628;28;20026;-78
2021/08/07 03:26:47;;;;;;;11.55;4.65;;;;;;;19.66;47.06;94596.03;5014040;28;20461;-78
2021/08/07 03:29:13;;;;;;;12.30;4.40;;;;;;;19.61;47.09;94588.22;4981514;28;20106;-78
2021/08/07 03:31:38;;;;;;;12.07;4.18;;;;;;;19.62;47.22;94600.34;5014655;28;20030;-78
2021/08/07 03:34:04;;;;;;;14.63;4.30;;;;;;;19.65;47.40;94596.31;4997614;28;20029;-78
2021/08/07 03:36:29;;;;;;;14.65;4.93;;;;;;;19.67;47.52;94602.88;5014689;28;20030;-78
2021/08/07 03:39:04;;;;;;;9.20;4.57;;;;;;;19.72;47.57;94607.28;5015797;28;20053;-78
2021/08/07 03:41:30;;;;;;;14.95;4.38;;;;;;;19.76;47.57;94609.03;5013166;28;20037;-78
2021/08/07 03:44:01;;;;;;;9.18;3.75;;;;;;;19.85;47.66;94613.59;5016372;28;20084;-78
2021/08/07 03:46:27;;;;;;;6.88;4.28;;;;;;;19.87;47.47;94624.66;5015817;28;20065;-78
2021/08/07 03:48:52;;;;;;;18.60;4.60;;;;;;;19.89;47.48;94623.28;5015987;28;20070;-78
2021/08/07 03:51:18;;;;;;;10.90;4.82;;;;;;;19.94;47.52;94614.50;5014056;28;20057;-78
2021/08/07 03:53:43;;;;;;;22.67;5.03;;;;;;;19.99;47.27;94617.78;5014464;28;20133;-78
2021/08/07 03:56:09;;;;;;;13.52;4.38;;;;;;;20.01;47.21;94620.13;5015994;28;20391;-78
2021/08/07 03:58:34;;;;;;;8.73;3.17;;;;;;;20.07;46.28;94626.91;5015292;28;20030;-79
2021/08/07 04:00:59;;;;;;;16.70;2.75;;;;;;;20.13;46.43;94624.91;5015492;28;20022;-78
2021/08/07 04:03:25;;;;;;;5.88;2.03;;;;;;;20.16;46.01;94621.69;5014593;28;20029;-79
2021/08/07 04:05:50;;;;;;;5.47;1.58;;;;;;;20.19;45.60;94626.41;4998301;28;20042;-78
2021/08/07 04:08:19;;;;;;;8.52;2.35;;;;;;;20.21;45.34;94619.75;4983268;28;20092;-78
2021/08/07 04:10:44;;;;;;;4.60;1.92;;;;;;;20.26;45.12;94619.63;5012846;28;20631;-78
2021/08/07 04:13:13;;;;;;;5.85;1.70;;;;;;;20.36;44.83;94626.56;5014568;28;20022;-78
2021/08/07 04:15:38;;;;;;;9.02;1.95;;;;;;;21.42;42.81;94633.88;5015034;28;20568;-79
2021/08/07 04:18:04;;;;;;;1.75;1.65;;;;;;;23.78;37.21;94632.66;5015530;28;20022;-79
2021/08/07 04:20:29;;;;;;;9.45;1.50;;;;;;;25.87;33.31;94624.53;5033043;22;20042;-78
2021/08/07 04:22:55;;;;;;;3.15;1.35;;;;;;;27.87;29.57;94642.41;5035683;28;20049;-79
2021/08/07 04:25:20;;;;;;;1.17;1.10;;;;;;;29.62;26.89;94627.34;5035540;28;20049;-79
2021/08/07 04:27:45;;;;;;;1.73;1.23;;;;;;;31.09;25.03;94626.41;5018512;28;20036;-79
2021/08/07 04:32:40;;;;;;;3.53;1.55;;;;;;;33.89;21.87;94621.25;5091242;22;20041;-79
2021/08/07 04:35:06;;;;;;;1.73;1.00;;;;;;;35.18;20.00;94622.53;5035766;28;20044;-79
2021/08/07 04:37:52;;;;;;;2.83;0.93;;;;;;;36.06;18.59;94630.50;5035668;28;20547;-78
2021/08/07 04:40:19;;;;;;;1.08;1.00;;;;;;;37.14;17.95;94641.81;5019961;28;20221;-79
2021/08/07 04:42:44;;;;;;;1.80;0.93;;;;;;;37.98;17.17;94633.69;5035314;28;20036;-79
2021/08/07 04:45:10;;;;;;;5.05;1.00;;;;;;;38.92;16.23;94639.06;5017876;28;20037;-79
2021/08/07 04:47:36;;;;;;;1.00;0.80;;;;;;;39.84;15.18;94637.13;5017680;28;20044;-80
2021/08/07 04:50:01;;;;;;;3.30;1.10;;;;;;;40.19;14.56;94641.00;5035476;28;20045;-79
2021/08/07 04:52:26;;;;;;;4.03;1.02;;;;;;;41.31;13.97;94647.78;5034922;28;20083;-79
2021/08/07 04:54:52;;;;;;;1.02;0.90;;;;;;;41.88;12.98;94648.84;5001523;28;20037;-79
2021/08/07 04:57:17;;;;;;;6.68;1.08;;;;;;;42.74;12.65;94658.53;4999778;28;20037;-80
2021/08/07 04:59:43;;;;;;;4.22;0.75;;;;;;;43.49;12.06;94657.84;5035216;28;20034;-80
2021/08/07 05:02:11;;;;;;;1.85;0.90;;;;;;;43.93;11.78;94661.97;5033536;28;20029;-78
2021/08/07 05:04:37;;;;;;;1.77;0.85;;;;;;;44.53;11.66;94664.31;5033979;28;20033;-78
2021/08/07 05:07:02;;;;;;;2.15;0.85;;;;;;;45.26;10.65;94673.78;5033892;28;20033;-80
2021/08/07 05:09:28;;;;;;;2.40;1.00;;;;;;;46.15;10.10;94675.94;5035526;28;20035;-78
2021/08/07 05:11:53;;;;;;;6.65;0.90;;;;;;;46.73;9.94;94671.91;5033791;28;20489;-78
2021/08/07 05:14:18;;;;;;;1.60;0.88;;;;;;;47.05;9.56;94677.78;5033920;28;20624;-78
2021/08/07 05:16:44;;;;;;;3.00;0.90;;;;;;;47.71;9.18;94674.69;5035038;28;20051;-78
2021/08/07 05:19:09;;;;;;;2.30;1.05;;;;;;;48.00;8.90;94671.88;5035427;28;20032;-78
2021/08/07 05:21:35;;;;;;;0.80;0.80;;;;;;;48.44;8.79;94671.00;5040705;22;20109;-78
2021/08/07 05:24:00;;;;;;;4.20;0.77;;;;;;;48.73;8.65;94672.13;5035046;28;20040;-78
2021/08/07 05:26:26;;;;;;;2.78;0.85;;;;;;;48.63;8.58;94661.22;5035105;28;20091;-78
2021/08/07 05:28:51;;;;;;;2.90;0.70;;;;;;;49.38;8.12;94672.59;5017317;28;20036;-78
2021/08/07 05:31:17;;;;;;;0.77;0.60;;;;;;;49.69;7.98;94664.31;5000486;28;20037;-79
2021/08/07 05:33:42;;;;;;;0.80;0.77;;;;;;;50.04;7.58;94671.63;5035560;28;20057;-78
2021/08/07 05:36:08;;;;;;;2.72;1.02;;;;;;;50.35;7.64;94679.88;5034980;28;20029;-79
2021/08/07 05:38:33;;;;;;;1.08;0.75;;;;;;;50.54;7.29;94696.03;5034486;28;20018;-79
2021/08/07 05:40:58;;;;;;;1.52;0.77;;;;;;;50.49;7.57;94694.03;5000574;28;20468;-79
2021/08/07 05:43:27;;;;;;;2.53;0.80;;;;;;;51.10;7.20;94701.81;5034635;28;20034;-78
2021/08/07 05:45:59;;;;;;;0.50;0.50;;;;;;;51.39;6.67;94698.63;5034248;28;20037;-79
2021/08/07 05:48:24;;;;;;;1.95;1.20;;;;;;;52.19;6.77;94704.41;5032471;28;20181;-79
2021/08/07 05:50:49;;;;;;;3.55;0.68;;;;;;;52.73;6.13;94692.97;5039320;22;20108;-79
2021/08/07 05:53:15;;;;;;;1.80;0.60;;;;;;;52.89;5.87;94702.47;5035117;28;20420;-79
2021/08/07 05:55:40;;;;;;;0.88;0.60;;;;;;;52.81;5.84;94695.19;5016507;28;20148;-79
2021/08/07 05:58:09;;;;;;;0.85;0.70;;;;;;;53.03;6.28;94695.09;5016340;28;20025;-79
2021/08/07 06:00:35;;;;;;;3.05;0.80;;;;;;;53.02;5.67;94701.88;5033432;28;20041;-78
2021/08/07 06:03:00;;;;;;;1.13;0.70;;;;;;;53.08;5.76;94705.44;5014484;28;20037;-79
2021/08/07 06:05:26;;;;;;;2.28;0.80;;;;;;;52.62;6.39;94706.84;4983977;28;20041;-79
2021/08/07 06:07:51;;;;;;;4.43;0.82;;;;;;;52.88;6.11;94706.50;5034605;28;20485;-79
2021/08/07 06:10:17;;;;;;;6.95;0.60;;;;;;;51.84;6.43;94706.97;5016701;23;20520;-79
2021/08/07 06:12:42;;;;;;;3.10;0.63;;;;;;;50.75;6.88;94698.16;5054651;28;20059;-79
2021/08/07 06:15:08;;;;;;;2.47;0.75;;;;;;;50.54;6.87;94698.81;5054191;28;20029;-78
2021/08/07 06:17:35;;;;;;;2.78;0.65;;;;;;;49.81;7.89;94688.03;5053094;28;20021;-79
2021/08/07 06:20:00;;;;;;;2.67;0.70;;;;;;;49.39;7.80;94704.50;5052201;28;20029;-78
2021/08/07 06:22:26;;;;;;;3.70;0.60;;;;;;;49.43;8.23;94707.78;5053223;28;20075;-78
2021/08/07 06:24:51;;;;;;;2.22;0.60;;;;;;;48.64;8.11;94712.41;5053865;28;20505;-78
2021/08/07 06:27:17;;;;;;;1.38;0.70;;;;;;;48.66;8.22;94706.44;5052211;28;20021;-78
2021/08/07 06:29:42;;;;;;;2.30;0.68;;;;;;;48.20;8.79;94698.00;5053914;28;20079;-78
2021/08/07 06:32:07;;;;;;;0.80;0.65;;;;;;;48.12;8.76;94695.63;5052891;28;20025;-78
2021/08/07 06:34:33;;;;;;;1.90;0.90;;;;;;;47.35;9.40;94706.88;5053095;28;20408;-78
2021/08/07 06:36:59;;;;;;;0.80;0.80;;;;;;;46.36;9.97;94713.38;5056089;28;20455;-79
2021/08/07 06:39:27;;;;;;;2.05;0.93;;;;;;;44.97;10.68;94712.66;5038603;28;20436;-78
2021/08/07 06:41:53;;;;;;;1.13;0.77;;;;;;;44.02;11.62;94716.06;5057502;28;20036;-79
2021/08/07 06:44:18;;;;;;;0.70;0.70;;;;;;;43.29;12.29;94715.66;5056252;28;20017;-80
2021/08/07 06:46:44;;;;;;;2.90;1.00;;;;;;;42.97;12.12;94714.06;5057886;28;20033;-80
2021/08/07 06:49:09;;;;;;;3.72;1.10;;;;;;;42.39;12.70;94725.31;5057601;28;20075;-80
2021/08/07 06:51:34;;;;;;;2.33;0.80;;;;;;;42.06;13.11;94716.56;5057937;28;20475;-80
2021/08/07 06:54:00;;;;;;;0.90;0.80;;;;;;;41.65;13.17;94713.44;5057387;28;20481;-80
2021/08/07 06:56:26;;;;;;;2.60;1.20;;;;;;;41.27;13.63;94713.41;5051149;28;20033;-77
2021/08/07 06:58:51;;;;;;;7.05;1.20;;;;;;;40.72;14.16;94703.53;5052244;28;20079;-77
2021/08/07 07:01:16;;;;;;;1.13;0.65;;;;;;;40.07;14.93;94704.31;5053293;28;20057;-80
2021/08/07 07:03:42;;;;;;;2.08;0.98;;;;;;;39.45;15.37;94711.47;5085508;22;20030;-79
2021/08/07 07:06:07;;;;;;;0.80;0.80;;;;;;;38.85;15.56;94704.44;5037119;28;20044;-80
2021/08/07 07:08:33;;;;;;;6.35;0.82;;;;;;;38.57;15.81;94706.47;5019838;28;20028;-80
2021/08/07 07:10:58;;;;;;;1.45;0.77;;;;;;;38.41;16.30;94706.38;5019157;28;20037;-80
2021/08/07 07:13:24;;;;;;;2.05;0.80;;;;;;;38.11;16.16;94705.25;5003013;28;20037;-80
2021/08/07 07:15:49;;;;;;;1.27;0.80;;;;;;;37.71;16.54;94711.63;5037173;28;20033;-80
2021/08/07 07:18:17;;;;;;;3.60;1.15;;;;;;;37.23;17.74;94710.63;5037245;28;20480;-79
2021/08/07 07:20:43;;;;;;;3.20;0.85;;;;;;;36.75;18.07;94707.28;5037168;28;20029;-80
2021/08/07 07:23:09;;;;;;;2.47;0.95;;;;;;;36.52;17.81;94705.94;5016880;28;20087;-80
2021/08/07 07:25:35;;;;;;;6.38;0.85;;;;;;;36.30;17.60;94708.03;5036409;28;20037;-79
2021/08/07 07:28:00;;;;;;;4.53;0.80;;;;;;;36.14;17.37;94704.31;5036999;28;20504;-79
2021/08/07 07:30:30;;;;;;;5.57;1.00;;;;;;;36.17;17.72;94708.94;5035744;28;20135;-79
2021/08/07 07:32:55;;;;;;;4.75;1.30;;;;;;;36.11;17.80;94711.28;5019328;28;20029;-79
2021/08/07 07:35:21;;;;;;;6.15;0.95;;;;;;;35.97;17.88;94705.97;5037212;28;20060;-79
2021/08/07 07:37:47;;;;;;;1.98;0.90;;;;;;;35.62;17.69;94702.28;5001147;28;20040;-79
2021/08/07 07:40:12;;;;;;;3.25;1.17;;;;;;;35.34;18.12;94711.28;5033646;28;20026;-78
2021/08/07 07:42:37;;;;;;;7.00;0.70;;;;;;;35.06;18.03;94706.75;5035606;28;20033;-79
2021/08/07 07:45:07;;;;;;;3.05;0.80;;;;;;;34.76;18.36;94717.22;5035568;28;20033;-79
2021/08/07 07:47:35;;;;;;;1.73;0.90;;;;;;;34.00;18.84;94707.56;5034845;28;20109;-79
2021/08/07 07:50:01;;;;;;;2.10;0.90;;;;;;;33.87;19.46;94715.28;5035116;28;20064;-79
2021/08/07 07:52:26;;;;;;;0.90;0.90;;;;;;;33.77;20.04;94718.69;5002350;28;20030;-79
2021/08/07 07:54:51;;;;;;;3.03;0.77;;;;;;;33.55;19.86;94714.41;5035005;28;20026;-80
2021/08/07 07:57:19;;;;;;;2.72;0.98;;;;;;;33.48;20.65;94725.16;5035114;28;20540;-79
2021/08/07 07:59:44;;;;;;;5.85;0.90;;;;;;;33.37;20.44;94725.91;5037061;28;20112;-79
2021/08/07 08:02:10;;;;;;;2.88;0.80;;;;;;;33.19;20.43;94718.84;5037174;28;20037;-80
2021/08/07 08:04:35;;;;;;;1.52;0.95;;;;;;;33.06;21.14;94721.13;5037358;28;20025;-80
2021/08/07 08:07:01;;;;;;;4.25;1.00;;;;;;;32.97;20.90;94728.75;5036892;28;20041;-80
2021/08/07 08:09:27;;;;;;;3.80;0.95;;;;;;;32.77;21.06;94730.94;5018844;28;20410;-79
2021/08/07 08:11:53;;;;;;;3.22;1.20;;;;;;;32.59;21.37;94730.03;5035439;28;20036;-79
2021/08/07 08:14:18;;;;;;;2.15;0.90;;;;;;;32.51;21.54;94734.59;5018435;28;20021;-79
2021/08/07 08:16:45;;;;;;;4.28;1.00;;;;;;;31.27;22.88;94734.88;5001262;28;20420;-79
2021/08/07 08:19:11;;;;;;;1.63;1.00;;;;;;;31.14;23.14;94740.81;5036807;28;20028;-79
2021/08/07 08:21:37;;;;;;;1.92;1.25;;;;;;;31.26;22.69;94738.72;5036941;28;20026;-79
2021/08/07 08:24:02;;;;;;;1.00;1.00;;;;;;;31.41;22.72;94730.81;5035065;28;20029;-79
2021/08/07 08:26:31;;;;;;;1.80;1.20;;;;;;;31.40;22.77;94727.34;5018137;28;20041;-79
2021/08/07 08:28:57;;;;;;;5.40;1.02;;;;;;;30.95;23.10;94731.75;5032929;28;20029;-79
2021/08/07 08:31:22;;;;;;;1.00;0.90;;;;;;;31.15;22.69;94726.25;5032486;28;20037;-79
2021/08/07 08:33:51;;;;;;;1.13;1.02;;;;;;;31.35;22.72;94730.34;5036336;28;20486;-79
2021/08/07 08:36:17;;;;;;;6.25;1.00;;;;;;;31.34;22.66;94732.25;5036064;28;20044;-80
2021/08/07 08:38:43;;;;;;;0.93;0.85;;;;;;;30.69;23.20;94742.50;5035005;28;20048;-78
2021/08/07 08:41:08;;;;;;;1.67;1.05;;;;;;;30.73;22.99;94737.94;5035193;28;20087;-79
2021/08/07 08:43:38;;;;;;;1.88;1.20;;;;;;;30.83;23.42;94740.03;5018287;28;20025;-79
2021/08/07 08:46:04;;;;;;;2.10;1.10;;;;;;;30.80;23.95;94737.28;5034433;28;20037;-79
2021/08/07 08:48:32;;;;;;;1.38;1.27;;;;;;;30.93;23.48;94731.34;5034972;28;20031;-80
2021/08/07 08:50:58;;;;;;;6.53;1.30;;;;;;;31.09;23.53;94741.91;5017124;28;20461;-79
2021/08/07 08:53:23;;;;;;;2.03;0.90;;;;;;;31.17;23.53;94740.84;5039497;22;20045;-79
2021/08/07 08:55:52;;;;;;;4.90;0.90;;;;;;;31.11;23.53;94744.22;5033835;28;20033;-79
2021/08/07 08:58:17;;;;;;;3.17;1.15;;;;;;;30.88;23.99;94739.69;5031618;28;20033;-79
2021/08/07 09:00:43;;;;;;;2.58;1.30;;;;;;;30.58;24.17;94731.56;5034040;28;20018;-79
2021/08/07 09:03:08;;;;;;;1.20;1.10;;;;;;;30.58;24.16;94725.41;5034484;28;20043;-79
2021/08/07 09:05:34;;;;;;;1.08;0.93;;;;;;;30.59;24.13;94735.81;5017671;28;20026;-79
2021/08/07 09:07:59;;;;;;;3.45;1.15;;;;;;;30.56;24.38;94727.69;5035142;28;20037;-78
2021/08/07 09:10:25;;;;;;;1.77;0.82;;;;;;;30.55;24.48;94731.50;5035413;28;20099;-79
2021/08/07 09:12:52;;;;;;;1.25;1.10;;;;;;;30.42;24.31;94738.97;5034833;28;20029;-78
2021/08/07 09:15:39;;;;;;;6.00;1.10;;;;;;;30.30;23.88;94737.28;5017389;28;20031;-79
2021/08/07 09:18:10;;;;;;;1.88;1.08;;;;;;;30.32;25.13;94734.25;5032721;28;20120;-79
2021/08/07 09:20:44;;;;;;;3.92;1.00;;;;;;;30.46;24.26;94735.25;5035917;28;20117;-80
2021/08/07 09:23:10;;;;;;;2.45;1.08;;;;;;;30.58;24.38;94741.53;5039268;22;20049;-79
2021/08/07 09:25:36;;;;;;;1.63;1.20;;;;;;;30.62;24.06;94734.34;5034635;28;20033;-79
2021/08/07 09:28:05;;;;;;;3.22;0.90;;;;;;;30.61;23.98;94740.81;5035494;28;20064;-79
2021/08/07 09:30:41;;;;;;;3.13;0.95;;;;;;;30.59;24.48;94743.06;5000911;28;20041;-79
2021/08/07 09:33:19;;;;;;;1.00;1.00;;;;;;;30.56;24.39;94741.13;5034134;28;20037;-79
2021/08/07 09:35:51;;;;;;;7.70;0.98;;;;;;;30.57;24.27;94748.81;5004287;23;20489;-79
2021/08/07 09:38:22;;;;;;;4.50;1.00;;;;;;;30.52;24.29;94748.34;5034540;28;20033;-79
2021/08/07 09:41:06;;;;;;;1.35;1.25;;;;;;;30.40;24.31;94742.03;5034802;28;20102;-79
2021/08/07 09:43:43;;;;;;;1.30;1.20;;;;;;;30.42;24.38;94738.97;5034402;28;20037;-79
2021/08/07 09:46:35;;;;;;;3.75;1.25;;;;;;;30.39;24.83;94735.13;5033927;28;20099;-79
2021/08/07 09:49:00;;;;;;;9.40;1.30;;;;;;;30.29;24.68;94733.06;5034296;28;20041;-79
2021/08/07 09:51:28;;;;;;;1.50;1.40;;;;;;;30.30;24.99;94733.84;5001073;28;20038;-79
2021/08/07 09:54:08;;;;;;;1.50;1.33;;;;;;;30.27;24.69;94743.38;5033381;28;20493;-79
2021/08/07 09:56:57;;;;;;;5.22;1.38;;;;;;;30.17;25.24;94738.59;5033893;28;20033;-79
2021/08/07 09:59:24;;;;;;;4.70;0.98;;;;;;;30.09;24.91;94740.38;5033693;28;20029;-79
2021/08/07 10:01:51;;;;;;;2.13;1.10;;;;;;;30.10;24.88;94731.22;5033382;28;20512;-79
2021/08/07 10:04:17;;;;;;;1.17;1.08;;;;;;;30.17;24.92;94738.59;5001104;28;20525;-79
2021/08/07 10:06:43;;;;;;;3.10;1.30;;;;;;;30.20;24.50;94737.09;5035205;28;20055;-78
2021/08/07 10:09:09;;;;;;;3.33;1.88;;;;;;;30.25;25.10;94728.75;5002987;28;20040;-79
2021/08/07 10:11:35;;;;;;;1.98;1.00;;;;;;;30.07;24.15;94739.19;5020835;28;20038;-80
2021/08/07 10:14:01;;;;;;;5.05;1.10;;;;;;;30.07;24.43;94739.19;5037550;28;20381;-79
2021/08/07 10:16:27;;;;;;;1.38;0.95;;;;;;;30.00;24.36;94739.03;5035841;28;20029;-79
2021/08/07 10:18:56;;;;;;;1.25;1.00;;;;;;;29.93;24.44;94731.63;5037333;28;20052;-79
2021/08/07 10:21:21;;;;;;;1.38;1.10;;;;;;;29.93;24.40;94736.22;5037972;28;20477;-79
2021/08/07 10:23:47;;;;;;;2.70;1.08;;;;;;;29.84;24.68;94737.25;5038683;28;20064;-79
2021/08/07 10:26:16;;;;;;;1.20;1.00;;;;;;;29.72;24.99;94740.06;5020672;28;20101;-79
2021/08/07 10:28:43;;;;;;;1.13;1.10;;;;;;;29.69;25.51;94731.97;5037579;28;20037;-79
2021/08/07 10:31:11;;;;;;;1.48;1.30;;;;;;;29.66;25.73;94725.44;5039391;28;20026;-79
2021/08/07 10:33:37;;;;;;;0.80;0.80;;;;;;;29.68;25.27;94725.84;5038888;28;20034;-78
2021/08/07 10:36:08;;;;;;;2.25;0.90;;;;;;;29.57;24.62;94730.22;5040106;28;20018;-79
2021/08/07 10:38:36;;;;;;;1.20;1.17;;;;;;;29.33;25.49;94728.59;5038909;28;20033;-79
2021/08/07 10:41:01;;;;;;;0.65;0.65;;;;;;;29.23;25.33;94713.84;5035837;28;20571;-79
2021/08/07 10:43:28;;;;;;;0.80;0.80;;;;;;;29.15;25.13;94722.13;5038194;28;20032;-79
2021/08/07 10:46:06;;;;;;;0.70;0.70;;;;;;;29.09;26.02;94720.81;5018872;28;20057;-78
2021/08/07 10:48:42;;;;;;;1.30;1.02;;;;;;;29.07;25.64;94694.41;5037786;28;20029;-79
2021/08/07 10:51:23;;;;;;;0.93;0.93;;;;;;;29.10;25.69;94698.28;5036631;28;20033;-79
2021/08/07 10:53:49;;;;;;;1.00;1.00;;;;;;;29.02;25.59;94697.38;5091495;22;20045;-78
2021/08/07 10:56:26;;;;;;;3.97;1.13;;;;;;;28.94;26.13;94706.38;5036911;28;20052;-78
2021/08/07 10:58:52;;;;;;;1.10;1.00;;;;;;;28.93;26.44;94691.44;5036124;28;20111;-78
2021/08/07 11:01:26;;;;;;;1.20;1.10;;;;;;;29.04;25.63;94695.13;5035902;28;20501;-78
2021/08/07 11:04:00;;;;;;;1.33;1.10;;;;;;;29.05;26.10;94685.94;5035951;28;20110;-78
2021/08/07 11:06:46;;;;;;;0.77;0.77;;;;;;;28.93;25.99;94681.50;5052535;22;20037;-78
2021/08/07 11:09:26;;;;;;;0.80;0.80;;;;;;;28.84;25.91;94677.47;5036323;28;20564;-78
2021/08/07 11:12:06;;;;;;;1.45;1.02;;;;;;;28.72;25.93;94686.38;5035891;28;20044;-77
2021/08/07 11:14:46;;;;;;;4.78;1.10;;;;;;;28.60;26.07;94687.28;5017724;28;20026;-78
2021/08/07 11:17:12;;;;;;;1.27;1.10;;;;;;;28.59;26.26;94677.69;5002765;28;20701;-78
2021/08/07 11:20:08;;;;;;;1.58;1.05;;;;;;;28.63;26.44;94675.88;5036192;28;20120;-78
2021/08/07 11:22:36;;;;;;;1.00;1.00;;;;;;;28.67;26.69;94682.09;5033519;28;20748;-78
2021/08/07 11:30:33;;;;;;;0.90;0.80;;;;;;;28.29;27.17;94681.97;5035822;28;20590;-78
2021/08/07 11:35:36;;;;;;;1.45;1.08;;;;;;;28.49;26.79;94670.22;5035175;28;20315;-80
2021/08/07 11:38:16;;;;;;;0.98;0.90;;;;;;;28.50;26.83;94669.09;5033213;28;20538;-80
2021/08/07 11:40:45;;;;;;;1.40;1.30;;;;;;;28.50;26.73;94671.78;5017681;23;20045;-80
2021/08/07 11:43:23;;;;;;;3.88;1.00;;;;;;;28.53;26.55;94652.34;5072401;28;20036;-77
2021/08/07 11:46:01;;;;;;;1.58;0.95;;;;;;;28.60;27.45;94665.09;5073634;28;20086;-80
2021/08/07 11:48:34;;;;;;;1.10;0.95;;;;;;;28.60;26.85;94657.84;5033717;22;20087;-77